createdAt,value
2023-01-13T00:02:40.286Z,2.53
2023-01-13T00:06:51.900Z,2.40
2023-01-13T00:11:03.511Z,2.80
2023-01-13T00:15:15.185Z,2.97
2023-01-13T00:19:26.720Z,2.33
2023-01-13T00:23:39.548Z,2.40
2023-01-13T00:27:51.155Z,3.08
2023-01-13T00:32:02.855Z,2.88
2023-01-13T00:36:15.957Z,2.67
2023-01-13T00:40:27.494Z,2.08
2023-01-13T00:44:39.006Z,2.47
2023-01-13T00:48:51.573Z,2.03
2023-01-13T00:53:08.255Z,3.20
2023-01-13T00:57:19.872Z,2.25
2023-01-13T01:01:31.561Z,2.53
2023-01-13T01:05:43.125Z,2.30
2023-01-13T01:09:54.681Z,2.03
2023-01-13T01:14:06.792Z,2.35
2023-01-13T01:18:18.329Z,2.40
2023-01-13T01:22:30.364Z,3.05
2023-01-13T01:26:41.963Z,3.13
2023-01-13T01:30:55.323Z,3.07
2023-01-13T01:35:07.184Z,2.40
2023-01-13T01:39:18.749Z,3.20
2023-01-13T01:44:06.849Z,2.47
2023-01-13T01:48:19.589Z,3.13
2023-01-13T01:52:36.833Z,3.97
2023-01-13T01:56:49.118Z,3.13
2023-01-13T02:01:01.380Z,3.60
2023-01-13T02:05:13.521Z,3.33
2023-01-13T02:09:26.733Z,2.93
2023-01-13T02:13:38.449Z,3.23
2023-01-13T02:18:05.617Z,3.40
2023-01-13T02:22:48.275Z,3.60
2023-01-13T02:27:18.444Z,2.10
2023-01-13T02:31:44.301Z,2.57
2023-01-13T02:36:17.209Z,2.47
2023-01-13T02:40:45.689Z,3.73
2023-01-13T02:45:10.213Z,3.17
2023-01-13T02:49:32.046Z,2.33
2023-01-13T02:54:01.767Z,3.13
2023-01-13T02:58:17.382Z,3.10
2023-01-13T03:02:29.274Z,3.27
2023-01-13T03:07:04.268Z,2.37
2023-01-13T03:11:18.713Z,2.83
2023-01-13T03:15:52.798Z,2.93
2023-01-13T03:20:09.234Z,2.27
2023-01-13T03:24:25.910Z,1.93
2023-01-13T03:28:44.736Z,3.30
2023-01-13T03:33:02.559Z,2.77
2023-01-13T03:37:17.028Z,3.37
2023-01-13T03:41:28.569Z,3.20
2023-01-13T03:45:43.292Z,2.50
2023-01-13T03:50:08.172Z,2.13
2023-01-13T03:54:23.796Z,2.80
2023-01-13T03:58:40.456Z,2.67
2023-01-13T04:02:57.314Z,3.27
2023-01-13T04:07:35.173Z,3.07
2023-01-13T04:11:56.277Z,2.50
2023-01-13T04:16:08.802Z,2.57
2023-01-13T04:20:20.930Z,2.17
2023-01-13T04:24:32.460Z,2.23
2023-01-13T04:28:43.982Z,2.63
2023-01-13T04:32:55.525Z,1.90
2023-01-13T04:37:06.984Z,1.80
2023-01-13T04:41:18.556Z,1.67
2023-01-13T04:45:30.308Z,1.87
2023-01-13T04:49:41.792Z,1.77
2023-01-13T04:53:53.332Z,1.97
2023-01-13T04:58:09.887Z,1.13
2023-01-13T05:02:21.478Z,1.33
2023-01-13T05:06:33.218Z,1.40
2023-01-13T05:10:44.689Z,1.00
2023-01-13T05:15:14.812Z,2.07
2023-01-13T05:19:31.600Z,1.23
2023-01-13T05:24:01.846Z,1.50
2023-01-13T05:28:13.541Z,1.70
2023-01-13T05:32:27.868Z,1.30
2023-01-13T05:36:39.503Z,1.57
2023-01-13T05:41:09.540Z,1.60
2023-01-13T05:45:21.075Z,1.60
2023-01-13T05:49:32.610Z,1.20
2023-01-13T05:53:44.173Z,2.00
2023-01-13T05:57:55.669Z,1.47
2023-01-13T06:02:07.163Z,1.47
2023-01-13T06:06:18.645Z,1.63
2023-01-13T06:10:30.654Z,1.20
2023-01-13T06:14:42.105Z,1.53
2023-01-13T06:18:54.558Z,1.60
2023-01-13T06:23:09.968Z,1.80
2023-01-13T06:27:22.953Z,1.80
2023-01-13T06:31:39.099Z,1.40
2023-01-13T06:35:55.339Z,1.80
2023-01-13T06:40:07.661Z,1.90
2023-01-13T06:44:20.977Z,2.00
2023-01-13T06:48:36.135Z,1.60
2023-01-13T06:52:50.807Z,1.90
2023-01-13T06:57:02.540Z,2.20
2023-01-13T07:01:14.143Z,1.67
2023-01-13T07:05:25.720Z,1.40
2023-01-13T07:09:37.333Z,2.30
2023-01-13T07:14:07.638Z,2.00
2023-01-13T07:18:19.140Z,1.97
2023-01-13T07:22:30.651Z,2.90
2023-01-13T07:26:42.177Z,2.73
2023-01-13T07:30:54.103Z,1.73
2023-01-13T07:35:06.289Z,2.50
2023-01-13T07:39:17.867Z,2.67
2023-01-13T07:43:32.331Z,2.00
2023-01-13T07:47:43.834Z,2.13
2023-01-13T07:51:55.621Z,2.37
2023-01-13T07:56:08.275Z,1.70
2023-01-13T08:00:20.303Z,1.83
2023-01-13T08:04:31.800Z,2.40
2023-01-13T08:08:43.310Z,2.07
2023-01-13T08:13:13.557Z,2.33
2023-01-13T08:17:25.068Z,2.50
2023-01-13T08:21:36.545Z,3.13
2023-01-13T08:25:48.884Z,2.70
2023-01-13T08:30:00.685Z,2.43
2023-01-13T08:34:12.208Z,2.50
2023-01-13T08:38:24.641Z,2.00
2023-01-13T08:42:36.385Z,2.20
2023-01-13T08:46:47.829Z,2.10
2023-01-13T08:51:05.544Z,2.63
2023-01-13T08:55:17.093Z,2.40
2023-01-13T08:59:28.608Z,2.67
2023-01-13T09:03:41.791Z,2.40
2023-01-13T09:07:53.344Z,2.50
2023-01-13T09:12:24.556Z,3.43
2023-01-13T09:16:36.046Z,2.70
2023-01-13T09:20:47.599Z,3.13
2023-01-13T09:24:59.212Z,2.03
2023-01-13T09:29:10.868Z,2.50
2023-01-13T09:33:41.168Z,2.40
2023-01-13T09:37:59.041Z,2.47
2023-01-13T09:43:08.226Z,2.80
2023-01-13T09:47:35.930Z,1.97
2023-01-13T09:51:55.445Z,2.90
2023-01-13T09:56:10.669Z,3.20
2023-01-13T10:00:28.751Z,2.90
2023-01-13T10:04:40.391Z,2.70
2023-01-13T10:08:51.929Z,2.63
2023-01-13T10:13:15.076Z,2.17
2023-01-13T10:17:43.744Z,2.47
2023-01-13T10:22:04.840Z,2.57
2023-01-13T10:26:39.780Z,1.93
2023-01-13T10:30:51.496Z,2.43
2023-01-13T10:35:03.359Z,2.50
2023-01-13T10:39:16.933Z,2.80
2023-01-13T10:43:29.948Z,2.67
2023-01-13T10:47:42.814Z,2.27
2023-01-13T10:51:54.356Z,2.53
2023-01-13T10:56:06.225Z,3.33
2023-01-13T11:00:26.504Z,3.13
2023-01-13T11:04:40.594Z,2.63
2023-01-13T11:08:55.210Z,3.00
2023-01-13T11:13:15.783Z,3.27
2023-01-13T11:18:00.438Z,3.10
2023-01-13T11:22:17.559Z,3.30
2023-01-13T11:26:43.631Z,2.67
2023-01-13T11:31:11.160Z,2.80
2023-01-13T11:35:24.036Z,2.40
2023-01-13T11:40:06.622Z,3.00
2023-01-13T11:44:54.947Z,2.33
2023-01-13T11:49:07.027Z,2.53
2023-01-13T11:53:27.503Z,2.63
2023-01-13T11:58:01.565Z,2.27
2023-01-13T12:02:38.806Z,2.10
2023-01-13T12:07:13.820Z,2.37
2023-01-13T12:12:00.804Z,1.83
2023-01-13T12:16:23.609Z,3.07
2023-01-13T12:21:00.031Z,3.13
2023-01-13T12:25:20.755Z,4.40
2023-01-13T12:29:37.633Z,2.73
2023-01-13T12:34:17.800Z,4.30
2023-01-13T12:38:34.310Z,3.13
2023-01-13T12:43:33.869Z,2.30
2023-01-13T12:47:46.410Z,1.97
2023-01-13T12:51:57.884Z,2.37
2023-01-13T12:56:24.652Z,1.97
2023-01-13T13:00:39.289Z,1.90
2023-01-13T13:04:53.513Z,2.67
2023-01-13T13:09:17.264Z,2.10
2023-01-13T13:13:47.536Z,1.80
2023-01-13T13:17:59.419Z,2.57
2023-01-13T13:22:12.316Z,2.97
2023-01-13T13:26:36.098Z,2.43
2023-01-13T13:31:05.748Z,2.50
2023-01-13T13:35:23.419Z,3.30
2023-01-13T13:39:55.063Z,2.47
2023-01-13T13:44:53.405Z,2.00
2023-01-13T13:49:04.990Z,2.23
2023-01-13T13:53:25.577Z,2.30
2023-01-13T13:57:42.456Z,2.33
2023-01-13T14:02:06.128Z,2.33
2023-01-13T14:06:33.542Z,2.30
2023-01-13T14:10:46.579Z,2.77
2023-01-13T14:14:59.937Z,2.33
2023-01-13T14:19:34.516Z,1.67
2023-01-13T14:23:56.528Z,2.00
2023-01-13T14:28:22.333Z,2.27
2023-01-13T14:32:36.666Z,2.42
2023-01-13T14:36:51.093Z,2.47
2023-01-13T14:41:25.766Z,2.63
2023-01-13T14:45:37.467Z,2.17
2023-01-13T14:50:06.815Z,2.47
2023-01-13T14:54:51.147Z,2.30
2023-01-13T14:59:32.762Z,2.70
2023-01-13T15:03:45.407Z,2.13
2023-01-13T15:08:11.455Z,1.87
2023-01-13T15:12:29.236Z,2.73
2023-01-13T15:16:41.845Z,2.47
2023-01-13T15:20:53.624Z,2.27
2023-01-13T15:25:05.838Z,3.00
2023-01-13T15:29:20.364Z,2.60
2023-01-13T15:33:32.105Z,2.72
2023-01-13T15:37:44.955Z,3.07
2023-01-13T15:42:29.330Z,2.83
2023-01-13T15:46:41.025Z,2.07
2023-01-13T15:50:52.538Z,1.67
2023-01-13T15:55:04.454Z,2.10
2023-01-13T15:59:19.315Z,2.07
2023-01-13T16:03:30.850Z,2.47
2023-01-13T16:07:42.451Z,2.47
2023-01-13T16:11:54.102Z,2.50
2023-01-13T16:16:27.160Z,3.37
2023-01-13T16:20:38.627Z,2.73
2023-01-13T16:24:50.346Z,2.33
2023-01-13T16:29:01.837Z,2.30
2023-01-13T16:33:13.445Z,1.87
2023-01-13T16:37:27.100Z,1.73
2023-01-13T16:41:38.640Z,2.10
2023-01-13T16:45:50.177Z,2.67
2023-01-13T16:50:01.895Z,1.67
2023-01-13T16:54:13.438Z,1.93
2023-01-13T16:58:24.925Z,2.67
2023-01-13T17:02:36.450Z,2.40
2023-01-13T17:07:00.391Z,2.73
2023-01-13T17:11:12.456Z,2.13
2023-01-13T17:15:23.985Z,2.27
2023-01-13T17:19:35.533Z,3.50
2023-01-13T17:23:47.581Z,2.53
2023-01-13T17:27:59.028Z,2.57
2023-01-13T17:32:20.798Z,2.17
2023-01-13T17:36:32.367Z,2.60
2023-01-13T17:40:43.842Z,3.20
2023-01-13T17:44:55.739Z,1.23
2023-01-13T17:49:07.265Z,1.50
2023-01-13T17:53:19.824Z,1.70
2023-01-13T17:57:31.264Z,1.63
2023-01-13T18:01:42.920Z,1.10
2023-01-13T18:05:54.561Z,1.45
2023-01-13T18:10:06.596Z,1.50
2023-01-13T18:14:18.880Z,2.17
2023-01-13T18:18:30.412Z,2.03
2023-01-13T18:23:00.623Z,1.73
2023-01-13T18:27:19.275Z,1.00
2023-01-13T18:31:30.873Z,0.90
2023-01-13T18:35:42.394Z,1.17
2023-01-13T18:39:53.935Z,1.10
2023-01-13T18:44:05.651Z,1.30
2023-01-13T18:48:17.138Z,1.53
2023-01-13T18:52:29.083Z,1.67
2023-01-13T18:56:40.878Z,2.30
2023-01-13T19:01:00.965Z,1.70
2023-01-13T19:05:13.286Z,2.00
2023-01-13T19:09:26.576Z,1.70
2023-01-13T19:13:38.081Z,1.57
2023-01-13T19:17:49.664Z,1.70
2023-01-13T19:22:01.213Z,1.50
2023-01-13T19:26:13.406Z,1.20
2023-01-13T19:30:25.106Z,1.40
2023-01-13T19:34:37.044Z,1.20
2023-01-13T19:38:48.650Z,1.20
2023-01-13T19:43:18.936Z,1.00
2023-01-13T19:47:30.891Z,1.20
2023-01-13T19:51:42.396Z,1.00
2023-01-13T19:55:54.270Z,1.10
2023-01-13T20:00:07.748Z,1.23
2023-01-13T20:04:33.654Z,1.83
2023-01-13T20:08:46.117Z,1.47
2023-01-13T20:12:58.009Z,2.00
2023-01-13T20:17:12.106Z,2.17
2023-01-13T20:21:23.648Z,2.03
2023-01-13T20:25:35.238Z,2.33
2023-01-13T20:29:46.716Z,1.73
2023-01-13T20:33:58.249Z,1.80
2023-01-13T20:38:09.695Z,3.47
2023-01-13T20:42:30.405Z,3.70
2023-01-13T20:46:43.708Z,4.63
2023-01-13T20:50:57.889Z,1.30
2023-01-13T20:55:10.039Z,0.97
2023-01-13T20:59:22.803Z,1.23
2023-01-13T21:03:34.339Z,1.97
2023-01-13T21:07:45.836Z,1.50
2023-01-13T21:12:15.912Z,1.37
2023-01-13T21:16:27.509Z,2.20
2023-01-13T21:20:39.341Z,1.63
2023-01-13T21:24:50.857Z,2.30
2023-01-13T21:29:04.039Z,1.50
2023-01-13T21:33:15.569Z,2.20
2023-01-13T21:37:27.078Z,2.73
2023-01-13T21:41:57.177Z,2.00
2023-01-13T21:46:31.037Z,2.63
2023-01-13T21:50:42.527Z,3.10
2023-01-13T21:55:12.608Z,2.80
2023-01-13T21:59:24.111Z,2.27
2023-01-13T22:03:56.542Z,2.07
2023-01-13T22:08:08.488Z,2.07
2023-01-13T22:12:23.813Z,2.40
2023-01-13T22:16:42.371Z,2.30
2023-01-13T22:20:53.890Z,2.30
2023-01-13T22:25:30.235Z,1.90
2023-01-13T22:29:42.519Z,2.10
2023-01-13T22:33:55.452Z,2.00
2023-01-13T22:38:06.990Z,1.40
2023-01-13T22:42:18.564Z,2.07
2023-01-13T22:46:30.024Z,1.97
2023-01-13T22:50:41.570Z,1.70
2023-01-13T22:54:53.120Z,2.00
2023-01-13T22:59:05.994Z,2.00
2023-01-13T23:03:18.352Z,1.87
2023-01-13T23:07:30.052Z,2.60
2023-01-13T23:11:42.030Z,1.27
2023-01-13T23:15:53.653Z,1.77
2023-01-13T23:20:05.542Z,1.57
2023-01-13T23:24:17.139Z,2.17
2023-01-13T23:28:30.087Z,1.60
2023-01-13T23:32:41.687Z,1.80
2023-01-13T23:36:53.337Z,1.70
2023-01-13T23:41:10.009Z,1.50
2023-01-13T23:45:21.574Z,1.63
2023-01-13T23:49:33.170Z,1.97
2023-01-13T23:53:47.001Z,1.33
2023-01-13T23:57:58.623Z,1.50
